Time;durP1;ratioP1;P1;durP2;ratioP2;P2;SDS_P1;SDS_P2;PMS_P1;PMS_P2;Temp;Humidity;BMP_temperature;BMP_pressure;BME280_temperature;BME280_humidity;BME280_pressure;Samples;Min_cycle;Max_cycle;Signal;HPM_P1;HPM_P2
2024/02/24 00:00:37;;;;;;;7.13;2.40;;;;;;;;;;5015728;28;20030;-57
2024/02/24 00:03:02;;;;;;;6.60;2.47;;;;;;;;;;5014999;28;20018;-56
2024/02/24 00:05:27;;;;;;;7.83;2.50;;;;;;;;;;5019829;28;20106;-56
2024/02/24 00:07:53;;;;;;;7.37;2.30;;;;;;;;;;5019304;28;20441;-56
2024/02/24 00:10:18;;;;;;;6.22;2.20;;;;;;;;;;5017847;28;20022;-56
2024/02/24 00:12:43;;;;;;;9.73;2.60;;;;;;;;;;5009043;28;20034;-56
2024/02/24 00:15:09;;;;;;;6.88;2.40;;;;;;;;;;5000562;28;20497;-57
2024/02/24 00:17:34;;;;;;;6.43;2.72;;;;;;;;;;5014989;28;20037;-56
2024/02/24 00:19:59;;;;;;;7.43;2.88;;;;;;;;;;5020445;28;20087;-56
2024/02/24 00:22:24;;;;;;;6.90;2.30;;;;;;;;;;5014124;28;20030;-58
2024/02/24 00:24:49;;;;;;;7.53;2.35;;;;;;;;;;5022151;28;20388;-57
2024/02/24 00:27:15;;;;;;;6.95;2.63;;;;;;;;;;5034085;28;20114;-57
2024/02/24 00:29:40;;;;;;;6.10;2.20;;;;;;;;;;5034173;28;20033;-56
2024/02/24 00:32:05;;;;;;;9.23;2.50;;;;;;;;;;5022728;28;20899;-56
2024/02/24 00:34:31;;;;;;;6.40;2.20;;;;;;;;;;5016940;28;20478;-57
2024/02/24 00:36:56;;;;;;;6.73;2.33;;;;;;;;;;5017979;28;20030;-56
2024/02/24 00:39:22;;;;;;;6.95;2.70;;;;;;;;;;5013061;28;21046;-56
2024/02/24 00:41:50;;;;;;;6.63;2.75;;;;;;;;;;5013426;28;20014;-56
2024/02/24 00:44:15;;;;;;;6.57;2.13;;;;;;;;;;5012575;28;20030;-56
2024/02/24 00:46:40;;;;;;;5.90;2.22;;;;;;;;;;5005366;28;20100;-55
2024/02/24 00:49:06;;;;;;;8.27;2.57;;;;;;;;;;5005023;28;20090;-64
2024/02/24 00:51:32;;;;;;;7.78;2.40;;;;;;;;;;5018809;28;20076;-56
2024/02/24 00:53:58;;;;;;;9.02;2.50;;;;;;;;;;5012196;28;20022;-57
2024/02/24 00:56:23;;;;;;;8.27;2.80;;;;;;;;;;5013468;28;20022;-56
2024/02/24 00:58:48;;;;;;;6.53;3.20;;;;;;;;;;5000141;28;20023;-56
2024/02/24 01:01:14;;;;;;;7.50;2.78;;;;;;;;;;5017867;28;20112;-56
2024/02/24 01:03:39;;;;;;;8.23;2.70;;;;;;;;;;5012888;28;20033;-56
2024/02/24 01:06:04;;;;;;;6.90;2.60;;;;;;;;;;5013259;28;20036;-56
2024/02/24 01:08:30;;;;;;;9.20;3.23;;;;;;;;;;5013270;28;20021;-56
2024/02/24 01:10:55;;;;;;;5.70;2.40;;;;;;;;;;5013432;28;20056;-57
2024/02/24 01:13:20;;;;;;;7.33;2.60;;;;;;;;;;5012607;28;20458;-57
2024/02/24 01:15:45;;;;;;;7.15;2.60;;;;;;;;;;5011439;28;20050;-56
2024/02/24 01:18:10;;;;;;;6.57;2.63;;;;;;;;;;5012883;28;20077;-57
2024/02/24 01:20:35;;;;;;;7.03;2.65;;;;;;;;;;5013375;28;20029;-56
2024/02/24 01:23:00;;;;;;;7.07;2.50;;;;;;;;;;5012927;28;20084;-56
2024/02/24 01:25:26;;;;;;;7.75;2.80;;;;;;;;;;5006788;28;20034;-55
2024/02/24 01:27:51;;;;;;;8.03;2.90;;;;;;;;;;5004373;28;20034;-56
2024/02/24 01:30:16;;;;;;;8.13;2.90;;;;;;;;;;5016045;28;20033;-55
2024/02/24 01:32:41;;;;;;;7.93;2.97;;;;;;;;;;5012952;28;20476;-56
2024/02/24 01:35:07;;;;;;;9.13;3.37;;;;;;;;;;5015759;28;20022;-57
2024/02/24 01:37:33;;;;;;;6.68;2.78;;;;;;;;;;5017619;28;20025;-57
2024/02/24 01:39:58;;;;;;;7.53;2.50;;;;;;;;;;5021772;28;20026;-56
2024/02/24 01:42:23;;;;;;;7.78;2.33;;;;;;;;;;5023206;28;20449;-61
2024/02/24 01:44:48;;;;;;;6.20;2.47;;;;;;;;;;5025086;28;20033;-55
2024/02/24 01:47:13;;;;;;;6.30;2.87;;;;;;;;;;5023218;28;20025;-56
2024/02/24 01:49:39;;;;;;;7.47;2.63;;;;;;;;;;5015025;28;20022;-56
2024/02/24 01:52:05;;;;;;;9.38;2.88;;;;;;;;;;5015796;28;20022;-56
2024/02/24 01:54:30;;;;;;;6.28;2.50;;;;;;;;;;5017719;28;20405;-56
2024/02/24 01:56:56;;;;;;;6.90;2.45;;;;;;;;;;5019523;28;20125;-60
2024/02/24 01:59:21;;;;;;;8.27;2.75;;;;;;;;;;5021494;28;20018;-56
2024/02/24 02:01:46;;;;;;;6.97;2.42;;;;;;;;;;5014317;28;20014;-56
2024/02/24 02:04:12;;;;;;;6.70;2.93;;;;;;;;;;5014442;28;20028;-55
2024/02/24 02:06:37;;;;;;;7.43;3.13;;;;;;;;;;5013045;28;20087;-56
2024/02/24 02:09:02;;;;;;;9.83;3.53;;;;;;;;;;5012976;28;20022;-56
2024/02/24 02:11:28;;;;;;;6.57;2.97;;;;;;;;;;5012582;28;20017;-56
2024/02/24 02:13:53;;;;;;;6.37;2.70;;;;;;;;;;5010888;28;20026;-57
2024/02/24 02:16:19;;;;;;;7.13;2.90;;;;;;;;;;5018459;28;21027;-56
2024/02/24 02:18:44;;;;;;;9.68;3.25;;;;;;;;;;5012141;28;20101;-55
2024/02/24 02:21:09;;;;;;;7.25;3.15;;;;;;;;;;5004562;28;20037;-55
2024/02/24 02:23:34;;;;;;;8.60;2.92;;;;;;;;;;5011994;28;20153;-55
2024/02/24 02:26:00;;;;;;;7.77;3.17;;;;;;;;;;5012010;28;20117;-56
2024/02/24 02:28:25;;;;;;;6.95;3.05;;;;;;;;;;5012302;28;20044;-57
2024/02/24 02:30:51;;;;;;;8.63;2.77;;;;;;;;;;5013327;28;20018;-56
2024/02/24 02:33:16;;;;;;;6.72;2.60;;;;;;;;;;5011290;28;20069;-56
2024/02/24 02:35:41;;;;;;;7.23;2.97;;;;;;;;;;5010985;28;20025;-56
2024/02/24 02:38:09;;;;;;;8.10;3.10;;;;;;;;;;5011801;28;20022;-55
2024/02/24 02:40:34;;;;;;;9.05;3.20;;;;;;;;;;5011555;28;20021;-56
2024/02/24 02:42:59;;;;;;;9.33;3.27;;;;;;;;;;5012103;28;20018;-57
2024/02/24 02:45:24;;;;;;;6.73;2.80;;;;;;;;;;5017244;28;20491;-54
2024/02/24 02:47:50;;;;;;;8.57;3.00;;;;;;;;;;5013346;28;20029;-56
2024/02/24 02:50:15;;;;;;;8.02;3.17;;;;;;;;;;5012364;28;20130;-55
2024/02/24 02:52:40;;;;;;;7.50;2.57;;;;;;;;;;5015775;28;20018;-56
2024/02/24 02:55:05;;;;;;;7.10;2.47;;;;;;;;;;5015834;28;20436;-56
2024/02/24 02:57:30;;;;;;;6.63;2.65;;;;;;;;;;5014628;28;20041;-57
2024/02/24 02:59:56;;;;;;;6.43;2.33;;;;;;;;;;5016283;28;20497;-56
2024/02/24 03:02:21;;;;;;;8.38;2.92;;;;;;;;;;5014579;28;20157;-57
2024/02/24 03:04:46;;;;;;;9.20;2.60;;;;;;;;;;5015823;28;20026;-56
2024/02/24 03:07:11;;;;;;;6.83;2.80;;;;;;;;;;5005269;28;20401;-56
2024/02/24 03:09:36;;;;;;;6.20;2.60;;;;;;;;;;4996593;28;20030;-56
2024/02/24 03:12:02;;;;;;;6.05;2.83;;;;;;;;;;5002989;28;20014;-55
2024/02/24 03:14:27;;;;;;;7.03;2.60;;;;;;;;;;5016030;28;20041;-56
2024/02/24 03:16:54;;;;;;;6.93;2.40;;;;;;;;;;5018216;28;20014;-56
2024/02/24 03:19:19;;;;;;;7.05;2.72;;;;;;;;;;5035967;28;20420;-57
2024/02/24 03:21:44;;;;;;;8.77;2.75;;;;;;;;;;5035586;28;20036;-57
2024/02/24 03:24:09;;;;;;;9.57;2.83;;;;;;;;;;5035466;28;20037;-55
2024/02/24 03:26:34;;;;;;;7.20;3.45;;;;;;;;;;5024497;28;20026;-54
2024/02/24 03:28:59;;;;;;;7.25;2.80;;;;;;;;;;5019993;28;20033;-55
2024/02/24 03:31:25;;;;;;;9.77;2.97;;;;;;;;;;5014923;28;20048;-56
2024/02/24 03:33:50;;;;;;;6.70;2.90;;;;;;;;;;5015142;28;20432;-56
2024/02/24 03:36:16;;;;;;;7.10;2.80;;;;;;;;;;5016544;28;20025;-55
2024/02/24 03:38:42;;;;;;;7.38;2.97;;;;;;;;;;5015392;28;20092;-55
2024/02/24 03:41:07;;;;;;;10.98;2.70;;;;;;;;;;5014803;28;20108;-56
2024/02/24 03:43:33;;;;;;;9.07;2.20;;;;;;;;;;5007976;28;20027;-55
2024/02/24 03:45:58;;;;;;;7.07;2.43;;;;;;;;;;5016012;28;20018;-57
2024/02/24 03:48:24;;;;;;;6.67;2.67;;;;;;;;;;5017435;28;20102;-56
2024/02/24 03:50:50;;;;;;;8.05;2.58;;;;;;;;;;5016716;28;20017;-56
2024/02/24 03:53:15;;;;;;;6.00;2.22;;;;;;;;;;5013473;28;20034;-55
2024/02/24 03:55:40;;;;;;;6.60;2.30;;;;;;;;;;5013142;28;20064;-56
2024/02/24 03:58:05;;;;;;;5.90;2.23;;;;;;;;;;5020526;28;20014;-57
2024/02/24 04:00:34;;;;;;;5.90;1.90;;;;;;;;;;5014476;28;20819;-56
2024/02/24 04:02:59;;;;;;;6.10;2.10;;;;;;;;;;5014921;28;20033;-56
2024/02/24 04:05:25;;;;;;;6.97;2.10;;;;;;;;;;5014574;28;20018;-55
2024/02/24 04:07:50;;;;;;;8.50;2.10;;;;;;;;;;5015605;28;20044;-56
2024/02/24 04:10:15;;;;;;;7.57;2.17;;;;;;;;;;5017062;28;20104;-56
2024/02/24 04:12:40;;;;;;;6.20;2.30;;;;;;;;;;5015630;28;20061;-56
2024/02/24 04:15:05;;;;;;;7.28;2.25;;;;;;;;;;5016447;28;20024;-57
2024/02/24 04:17:30;;;;;;;6.45;1.83;;;;;;;;;;5019139;28;20057;-55
2024/02/24 04:19:56;;;;;;;7.32;2.47;;;;;;;;;;5017503;28;20018;-55
2024/02/24 04:22:21;;;;;;;5.70;2.45;;;;;;;;;;5016628;28;20076;-56
2024/02/24 04:24:46;;;;;;;8.00;2.30;;;;;;;;;;5016824;28;20045;-57
2024/02/24 04:27:11;;;;;;;7.20;2.30;;;;;;;;;;5014519;28;20026;-55
2024/02/24 04:29:36;;;;;;;6.60;2.30;;;;;;;;;;5016229;28;20083;-57
2024/02/24 04:32:01;;;;;;;5.65;2.20;;;;;;;;;;5013329;28;20033;-56
2024/02/24 04:34:26;;;;;;;7.17;2.30;;;;;;;;;;5013322;28;20034;-56
2024/02/24 04:36:52;;;;;;;7.73;2.20;;;;;;;;;;5015268;28;20494;-56
2024/02/24 04:39:17;;;;;;;6.85;2.17;;;;;;;;;;5014465;28;20792;-55
2024/02/24 04:41:42;;;;;;;8.03;2.57;;;;;;;;;;5028194;28;20033;-56
2024/02/24 04:44:07;;;;;;;7.67;2.23;;;;;;;;;;5014572;28;20165;-56
2024/02/24 04:46:34;;;;;;;9.27;2.33;;;;;;;;;;5015394;28;20097;-56
2024/02/24 04:49:00;;;;;;;5.05;1.90;;;;;;;;;;5014831;28;20040;-56
2024/02/24 04:51:25;;;;;;;8.23;2.65;;;;;;;;;;5014600;28;20022;-57
2024/02/24 04:53:50;;;;;;;6.90;2.10;;;;;;;;;;5019843;28;20061;-56
2024/02/24 04:56:17;;;;;;;8.32;2.53;;;;;;;;;;5026827;28;20072;-56
2024/02/24 04:58:44;;;;;;;7.60;2.80;;;;;;;;;;5027373;28;20029;-55
2024/02/24 05:01:09;;;;;;;8.30;2.85;;;;;;;;;;5021986;28;20037;-57
2024/02/24 05:03:34;;;;;;;8.10;2.73;;;;;;;;;;5023996;28;20029;-56
2024/02/24 05:05:59;;;;;;;6.77;2.50;;;;;;;;;;5018885;28;20026;-57
2024/02/24 05:08:25;;;;;;;6.97;2.40;;;;;;;;;;5018214;28;20100;-57
2024/02/24 05:10:50;;;;;;;7.50;2.88;;;;;;;;;;5016602;28;20105;-56
2024/02/24 05:13:15;;;;;;;6.95;2.30;;;;;;;;;;5014765;28;20065;-56
2024/02/24 05:15:40;;;;;;;7.32;2.53;;;;;;;;;;5014550;28;20025;-55
2024/02/24 05:18:05;;;;;;;8.88;2.55;;;;;;;;;;5002402;28;20029;-55
2024/02/24 05:20:30;;;;;;;6.53;2.33;;;;;;;;;;5013427;28;20091;-55
2024/02/24 05:22:56;;;;;;;9.07;2.40;;;;;;;;;;5012238;28;20457;-57
2024/02/24 05:25:21;;;;;;;10.27;2.97;;;;;;;;;;5013274;28;20026;-56
2024/02/24 05:27:46;;;;;;;8.13;2.92;;;;;;;;;;5013306;28;20083;-56
2024/02/24 05:30:11;;;;;;;7.37;2.40;;;;;;;;;;5013156;28;20110;-56
2024/02/24 05:32:36;;;;;;;6.97;2.50;;;;;;;;;;5013151;28;20017;-56
2024/02/24 05:35:01;;;;;;;8.52;2.50;;;;;;;;;;5015058;28;20091;-56
2024/02/24 05:37:27;;;;;;;6.13;2.40;;;;;;;;;;5013926;28;20054;-56
2024/02/24 05:39:52;;;;;;;9.43;2.80;;;;;;;;;;5012788;28;20105;-55
2024/02/24 05:42:17;;;;;;;7.23;2.73;;;;;;;;;;5007304;28;20478;-55
2024/02/24 05:44:42;;;;;;;7.03;2.40;;;;;;;;;;5013663;28;20498;-55
2024/02/24 05:47:07;;;;;;;6.37;2.50;;;;;;;;;;5013592;28;20022;-56
2024/02/24 05:49:33;;;;;;;7.67;2.80;;;;;;;;;;5012952;28;20512;-55
2024/02/24 05:51:58;;;;;;;6.00;2.30;;;;;;;;;;5013185;28;20437;-57
2024/02/24 05:54:23;;;;;;;7.60;2.58;;;;;;;;;;5014549;28;20030;-57
2024/02/24 05:56:48;;;;;;;11.53;3.20;;;;;;;;;;5018938;28;20025;-55
2024/02/24 05:59:13;;;;;;;5.97;2.33;;;;;;;;;;5016872;28;20049;-55
2024/02/24 06:01:38;;;;;;;7.43;2.17;;;;;;;;;;5022538;28;20464;-56
2024/02/24 06:04:04;;;;;;;6.47;2.55;;;;;;;;;;5023882;28;20030;-56
2024/02/24 06:06:29;;;;;;;6.95;2.63;;;;;;;;;;5029050;28;20092;-56
2024/02/24 06:08:54;;;;;;;7.70;2.30;;;;;;;;;;5026215;28;20045;-56
2024/02/24 06:11:19;;;;;;;8.87;2.70;;;;;;;;;;5022226;28;20724;-57
2024/02/24 06:13:46;;;;;;;5.75;2.30;;;;;;;;;;5022219;28;20077;-57
2024/02/24 06:16:12;;;;;;;6.35;2.60;;;;;;;;;;5025899;28;20161;-56
2024/02/24 06:18:37;;;;;;;7.47;2.70;;;;;;;;;;5016398;28;20057;-55
2024/02/24 06:21:03;;;;;;;6.50;2.37;;;;;;;;;;5014426;28;20033;-55
2024/02/24 06:23:28;;;;;;;6.82;2.47;;;;;;;;;;5015028;28;20054;-56
2024/02/24 06:25:53;;;;;;;7.20;2.60;;;;;;;;;;5011617;28;20029;-57
2024/02/24 06:28:18;;;;;;;8.17;2.10;;;;;;;;;;5011886;28;20030;-56
2024/02/24 06:30:45;;;;;;;7.18;2.35;;;;;;;;;;5011848;28;20018;-55
2024/02/24 06:33:10;;;;;;;8.68;2.47;;;;;;;;;;5011699;28;20037;-55
2024/02/24 06:35:35;;;;;;;8.40;2.53;;;;;;;;;;5011001;28;20034;-56
2024/02/24 06:38:00;;;;;;;5.73;2.50;;;;;;;;;;5010972;28;20030;-56
2024/02/24 06:40:26;;;;;;;7.57;2.88;;;;;;;;;;5013489;28;20049;-57
2024/02/24 06:42:51;;;;;;;8.20;2.27;;;;;;;;;;5012702;28;20037;-56
2024/02/24 06:45:16;;;;;;;5.27;2.40;;;;;;;;;;5011537;28;20033;-57
2024/02/24 06:47:42;;;;;;;9.52;3.25;;;;;;;;;;5015548;28;20455;-56
2024/02/24 06:50:07;;;;;;;7.03;2.60;;;;;;;;;;5021513;28;20037;-56
2024/02/24 06:52:32;;;;;;;9.37;2.80;;;;;;;;;;5014647;28;20029;-55
2024/02/24 06:54:57;;;;;;;6.00;2.63;;;;;;;;;;5010092;28;20444;-56
2024/02/24 06:57:23;;;;;;;7.67;2.63;;;;;;;;;;5006170;28;20884;-55
2024/02/24 06:59:49;;;;;;;7.32;2.97;;;;;;;;;;5018723;28;20023;-55
2024/02/24 07:02:14;;;;;;;8.38;3.10;;;;;;;;;;5009116;28;20109;-55
2024/02/24 07:04:42;;;;;;;7.40;2.78;;;;;;;;;;5010776;28;20113;-56
2024/02/24 07:07:08;;;;;;;7.68;2.88;;;;;;;;;;5011044;28;20026;-57
2024/02/24 07:09:33;;;;;;;6.95;3.03;;;;;;;;;;5011528;28;20088;-56
2024/02/24 07:11:58;;;;;;;8.07;3.23;;;;;;;;;;5011757;28;20381;-56
2024/02/24 07:14:24;;;;;;;7.20;3.00;;;;;;;;;;5017471;28;20584;-56
2024/02/24 07:16:49;;;;;;;6.20;2.70;;;;;;;;;;5016309;28;20081;-57
2024/02/24 07:19:14;;;;;;;8.47;2.97;;;;;;;;;;5012158;28;20030;-56
2024/02/24 07:21:43;;;;;;;7.95;3.00;;;;;;;;;;5010799;28;20470;-56
2024/02/24 07:24:08;;;;;;;8.00;3.15;;;;;;;;;;5004707;28;20088;-55
2024/02/24 07:26:40;;;;;;;7.57;3.30;;;;;;;;;;5005327;28;20482;-56
2024/02/24 07:29:05;;;;;;;8.80;3.15;;;;;;;;;;5010022;28;20029;-57
2024/02/24 07:31:30;;;;;;;7.20;2.97;;;;;;;;;;5019060;28;20397;-57
2024/02/24 07:33:55;;;;;;;7.07;2.90;;;;;;;;;;5012756;28;20041;-56
2024/02/24 07:36:20;;;;;;;9.33;3.07;;;;;;;;;;4999912;28;20035;-56
2024/02/24 07:38:46;;;;;;;8.45;3.22;;;;;;;;;;5011585;28;20021;-56
2024/02/24 07:41:11;;;;;;;8.30;3.10;;;;;;;;;;5009514;28;20037;-56
2024/02/24 07:43:36;;;;;;;9.03;3.07;;;;;;;;;;5017067;28;20137;-56
2024/02/24 07:46:01;;;;;;;8.50;3.15;;;;;;;;;;5012359;28;20462;-56
2024/02/24 07:48:26;;;;;;;8.95;3.30;;;;;;;;;;5008959;28;20156;-56
2024/02/24 07:50:51;;;;;;;9.13;3.00;;;;;;;;;;5014195;28;20013;-55
2024/02/24 07:53:16;;;;;;;8.93;3.00;;;;;;;;;;5011113;28;20040;-56
2024/02/24 07:55:42;;;;;;;7.93;3.00;;;;;;;;;;5013100;28;20096;-56
2024/02/24 07:58:09;;;;;;;9.93;3.10;;;;;;;;;;5012696;28;20097;-56
2024/02/24 08:00:34;;;;;;;10.05;3.03;;;;;;;;;;5006418;28;20487;-55
2024/02/24 08:03:00;;;;;;;6.15;2.35;;;;;;;;;;5008292;28;20072;-56
2024/02/24 08:05:25;;;;;;;7.17;2.63;;;;;;;;;;5010335;28;20390;-57
2024/02/24 08:07:50;;;;;;;6.57;2.33;;;;;;;;;;5011623;28;20044;-56
2024/02/24 08:10:15;;;;;;;7.07;2.80;;;;;;;;;;5010918;28;20026;-56
2024/02/24 08:12:41;;;;;;;6.50;2.35;;;;;;;;;;5011725;28;20017;-55
2024/02/24 08:15:06;;;;;;;5.90;2.40;;;;;;;;;;5013280;28;20549;-57
2024/02/24 08:17:31;;;;;;;7.70;2.58;;;;;;;;;;5012107;28;20107;-56
2024/02/24 08:19:56;;;;;;;8.20;2.90;;;;;;;;;;5014584;28;20025;-55
2024/02/24 08:22:22;;;;;;;6.50;2.10;;;;;;;;;;5013716;28;20025;-55
2024/02/24 08:24:47;;;;;;;5.88;2.15;;;;;;;;;;5012819;28;20449;-56
2024/02/24 08:27:12;;;;;;;5.75;2.42;;;;;;;;;;4996091;28;20034;-57
2024/02/24 08:29:37;;;;;;;5.67;2.40;;;;;;;;;;4995520;28;20053;-57
2024/02/24 08:32:03;;;;;;;6.35;2.25;;;;;;;;;;5015599;28;20026;-55
2024/02/24 08:34:28;;;;;;;7.22;2.10;;;;;;;;;;5017647;28;20429;-56
2024/02/24 08:36:53;;;;;;;6.88;2.03;;;;;;;;;;5011786;28;20041;-55
2024/02/24 08:39:18;;;;;;;6.30;1.87;;;;;;;;;;5014832;28;20383;-56
2024/02/24 08:41:43;;;;;;;4.83;1.83;;;;;;;;;;5007012;28;20025;-56
2024/02/24 08:44:09;;;;;;;6.78;2.25;;;;;;;;;;5013960;28;20068;-57
2024/02/24 08:46:34;;;;;;;6.47;2.10;;;;;;;;;;5005426;28;20041;-56
2024/02/24 08:48:59;;;;;;;6.97;2.30;;;;;;;;;;5012782;28;20023;-57
2024/02/24 08:51:27;;;;;;;5.70;2.00;;;;;;;;;;5011994;28;20393;-57
2024/02/24 08:53:52;;;;;;;6.68;2.10;;;;;;;;;;5007508;28;20025;-57
2024/02/24 08:56:19;;;;;;;5.90;1.70;;;;;;;;;;5013445;28;20035;-57
2024/02/24 08:58:44;;;;;;;6.28;2.05;;;;;;;;;;5012577;28;20406;-57
2024/02/24 09:01:09;;;;;;;5.43;1.73;;;;;;;;;;5009470;28;20513;-56
2024/02/24 09:03:34;;;;;;;6.13;1.95;;;;;;;;;;5009813;28;20017;-57
2024/02/24 09:06:00;;;;;;;6.45;2.00;;;;;;;;;;5012302;28;20030;-54
2024/02/24 09:08:25;;;;;;;6.70;1.83;;;;;;;;;;5010766;28;20037;-56
2024/02/24 09:10:52;;;;;;;5.10;1.90;;;;;;;;;;5005669;28;20037;-55
2024/02/24 09:13:17;;;;;;;6.88;1.90;;;;;;;;;;5012018;28;20026;-54
2024/02/24 09:15:42;;;;;;;5.93;1.90;;;;;;;;;;5004067;28;20386;-56
2024/02/24 09:18:07;;;;;;;5.83;2.07;;;;;;;;;;5004816;28;20037;-56
2024/02/24 09:20:33;;;;;;;5.87;1.77;;;;;;;;;;5009429;28;20022;-55
2024/02/24 09:22:58;;;;;;;7.17;1.93;;;;;;;;;;5013077;28;20022;-54
2024/02/24 09:25:23;;;;;;;7.35;1.90;;;;;;;;;;5006493;28;20635;-53
2024/02/24 09:27:48;;;;;;;5.43;1.80;;;;;;;;;;5004682;28;20041;-55
2024/02/24 09:30:13;;;;;;;5.40;1.70;;;;;;;;;;5009663;28;20026;-55
2024/02/24 09:32:39;;;;;;;6.07;1.60;;;;;;;;;;5011286;28;20030;-54
2024/02/24 09:35:04;;;;;;;6.22;1.67;;;;;;;;;;5012410;28;20014;-56
2024/02/24 09:37:33;;;;;;;4.57;1.50;;;;;;;;;;5013100;28;20022;-56
2024/02/24 09:39:58;;;;;;;5.95;1.50;;;;;;;;;;5012875;28;20080;-56
2024/02/24 09:42:26;;;;;;;4.95;1.42;;;;;;;;;;5012036;28;20421;-56
2024/02/24 09:44:53;;;;;;;4.80;1.30;;;;;;;;;;5010918;28;20034;-55
2024/02/24 09:47:18;;;;;;;4.15;1.15;;;;;;;;;;5012366;28;20021;-56
2024/02/24 09:49:43;;;;;;;4.45;1.10;;;;;;;;;;5011898;28;20022;-56
2024/02/24 09:52:08;;;;;;;4.53;1.27;;;;;;;;;;5012154;28;20029;-56
2024/02/24 09:54:35;;;;;;;3.58;1.10;;;;;;;;;;5012167;28;20025;-57
2024/02/24 09:57:01;;;;;;;3.83;1.00;;;;;;;;;;5010691;28;20120;-56
2024/02/24 09:59:26;;;;;;;3.33;0.90;;;;;;;;;;5012438;28;20164;-56
2024/02/24 10:01:51;;;;;;;3.65;1.30;;;;;;;;;;5011597;28;20474;-55
2024/02/24 10:04:17;;;;;;;5.30;1.13;;;;;;;;;;4993638;28;20034;-57
2024/02/24 10:06:43;;;;;;;4.82;1.00;;;;;;;;;;5009832;28;20485;-57
2024/02/24 10:09:08;;;;;;;4.07;1.13;;;;;;;;;;5012549;28;20065;-57
2024/02/24 10:11:35;;;;;;;5.32;1.55;;;;;;;;;;5012740;28;20018;-56
2024/02/24 10:14:00;;;;;;;4.35;1.10;;;;;;;;;;5014053;28;20076;-58
2024/02/24 10:16:26;;;;;;;4.63;0.95;;;;;;;;;;5026815;28;20030;-57
2024/02/24 10:18:51;;;;;;;5.77;1.10;;;;;;;;;;5013657;28;20022;-56
2024/02/24 10:21:16;;;;;;;4.28;1.00;;;;;;;;;;5017376;28;20435;-57
2024/02/24 10:23:41;;;;;;;3.83;1.05;;;;;;;;;;5019010;28;20018;-57
2024/02/24 10:26:07;;;;;;;4.03;1.20;;;;;;;;;;5019251;28;20034;-56
2024/02/24 10:28:32;;;;;;;5.82;1.30;;;;;;;;;;5018461;28;20029;-56
2024/02/24 10:30:58;;;;;;;3.92;1.00;;;;;;;;;;5014112;28;20024;-58
2024/02/24 10:33:24;;;;;;;3.88;1.20;;;;;;;;;;5001225;28;20037;-57
2024/02/24 10:35:50;;;;;;;5.20;1.10;;;;;;;;;;5019420;28;20080;-56
2024/02/24 10:38:16;;;;;;;4.88;1.13;;;;;;;;;;5012834;28;20030;-58
2024/02/24 10:40:42;;;;;;;5.47;1.00;;;;;;;;;;5013072;28;20111;-57
2024/02/24 10:43:07;;;;;;;5.65;0.93;;;;;;;;;;5014097;28;20022;-56
2024/02/24 10:45:33;;;;;;;2.90;0.88;;;;;;;;;;5015872;28;20705;-58
2024/02/24 10:47:58;;;;;;;3.25;0.90;;;;;;;;;;5013646;28;20553;-56
2024/02/24 10:50:24;;;;;;;3.67;0.90;;;;;;;;;;5012947;28;20060;-57
2024/02/24 10:52:50;;;;;;;8.25;1.23;;;;;;;;;;5023795;28;20022;-57
2024/02/24 10:55:19;;;;;;;4.78;0.93;;;;;;;;;;5027833;28;20119;-57
2024/02/24 10:57:46;;;;;;;4.18;0.82;;;;;;;;;;5020457;28;20030;-57
2024/02/24 11:00:31;;;;;;;3.42;0.82;;;;;;;;;;5025072;28;20502;-57
2024/02/24 11:02:57;;;;;;;3.17;0.85;;;;;;;;;;5019131;28;20017;-57
2024/02/24 11:05:23;;;;;;;3.90;1.10;;;;;;;;;;5022691;28;20014;-58
2024/02/24 11:07:48;;;;;;;3.00;0.80;;;;;;;;;;5021672;28;20029;-58
2024/02/24 11:10:20;;;;;;;2.42;0.70;;;;;;;;;;5007440;28;20104;-58
2024/02/24 11:12:50;;;;;;;3.40;1.00;;;;;;;;;;5016840;28;20030;-57
2024/02/24 11:15:19;;;;;;;4.00;0.90;;;;;;;;;;5018632;28;20030;-66
2024/02/24 11:17:48;;;;;;;2.28;0.52;;;;;;;;;;5020474;28;20095;-58
2024/02/24 11:20:32;;;;;;;5.07;1.02;;;;;;;;;;5028433;28;20049;-57
2024/02/24 11:23:16;;;;;;;2.95;0.80;;;;;;;;;;5026091;28;20030;-57
2024/02/24 11:25:41;;;;;;;3.00;0.95;;;;;;;;;;5023333;28;20037;-56
2024/02/24 11:28:07;;;;;;;8.17;1.07;;;;;;;;;;5020609;28;20056;-57
2024/02/24 11:30:35;;;;;;;4.15;1.00;;;;;;;;;;5021689;28;20040;-58
2024/02/24 11:33:19;;;;;;;2.15;0.65;;;;;;;;;;5021102;28;20018;-57
2024/02/24 11:35:44;;;;;;;;;;;;;;;;;;5020534;28;20026;-57
2024/02/24 11:38:10;;;;;;;2.90;0.95;;;;;;;;;;5021990;28;20009;-57
2024/02/24 11:40:36;;;;;;;3.13;1.10;;;;;;;;;;5014767;28;20036;-56
2024/02/24 11:43:01;;;;;;;3.05;0.93;;;;;;;;;;5014613;28;20399;-56
2024/02/24 11:45:26;;;;;;;3.07;0.83;;;;;;;;;;5014358;28;20032;-58
2024/02/24 11:47:51;;;;;;;2.92;0.90;;;;;;;;;;5015404;28;20014;-56
2024/02/24 11:50:17;;;;;;;2.70;0.70;;;;;;;;;;5015237;28;20482;-57
2024/02/24 11:52:42;;;;;;;4.70;0.90;;;;;;;;;;5014498;28;20026;-56
2024/02/24 11:55:08;;;;;;;3.95;0.50;;;;;;;;;;5012712;28;20097;-56
2024/02/24 11:57:33;;;;;;;2.93;0.93;;;;;;;;;;5014301;28;20041;-56
2024/02/24 11:59:58;;;;;;;2.83;0.50;;;;;;;;;;5012515;28;20402;-59
2024/02/24 12:02:23;;;;;;;2.45;0.43;;;;;;;;;;5011884;28;20478;-57
2024/02/24 12:04:48;;;;;;;4.97;0.60;;;;;;;;;;5014060;28;20037;-58
2024/02/24 12:07:14;;;;;;;2.97;0.50;;;;;;;;;;5010360;28;20033;-57
2024/02/24 12:09:39;;;;;;;2.47;0.47;;;;;;;;;;5005082;28;20034;-58
2024/02/24 12:12:05;;;;;;;2.92;0.70;;;;;;;;;;5014622;28;20041;-57
2024/02/24 12:14:30;;;;;;;3.00;0.60;;;;;;;;;;5014316;28;20030;-60
2024/02/24 12:16:57;;;;;;;2.67;0.60;;;;;;;;;;5014652;28;20026;-58
2024/02/24 12:19:25;;;;;;;2.30;0.57;;;;;;;;;;5014590;28;20021;-58
2024/02/24 12:21:50;;;;;;;1.85;0.47;;;;;;;;;;5013918;28;20506;-58
2024/02/24 12:24:24;;;;;;;3.00;1.03;;;;;;;;;;5012519;28;20087;-57
2024/02/24 12:26:50;;;;;;;2.63;0.43;;;;;;;;;;5014401;28;20417;-56
2024/02/24 12:29:15;;;;;;;2.20;0.57;;;;;;;;;;5013580;28;20121;-57
2024/02/24 12:31:40;;;;;;;1.37;0.40;;;;;;;;;;5014572;28;20394;-57
2024/02/24 12:34:05;;;;;;;2.47;0.55;;;;;;;;;;5014134;28;20113;-58
2024/02/24 12:36:31;;;;;;;3.40;0.50;;;;;;;;;;5012180;28;20504;-58
2024/02/24 12:38:56;;;;;;;1.85;0.60;;;;;;;;;;5012921;28;20075;-58
2024/02/24 12:41:22;;;;;;;2.50;0.60;;;;;;;;;;5014273;28;20033;-58
2024/02/24 12:43:47;;;;;;;2.75;0.50;;;;;;;;;;5013083;28;20077;-58
2024/02/24 12:46:12;;;;;;;1.23;0.40;;;;;;;;;;5012576;28;20026;-57
2024/02/24 12:48:37;;;;;;;2.30;0.60;;;;;;;;;;5013345;28;20033;-57
2024/02/24 12:51:02;;;;;;;2.53;0.50;;;;;;;;;;5015663;28;20028;-57
2024/02/24 12:53:28;;;;;;;1.20;0.40;;;;;;;;;;5011840;28;20029;-58
2024/02/24 12:55:54;;;;;;;1.67;0.50;;;;;;;;;;5013324;28;20410;-57
2024/02/24 12:58:20;;;;;;;;;;;;;;;;;;5011726;28;20018;-56
2024/02/24 13:00:46;;;;;;;2.63;0.63;;;;;;;;;;5011805;28;19909;-57
2024/02/24 13:03:11;;;;;;;1.48;0.50;;;;;;;;;;5005828;28;20101;-56
2024/02/24 13:05:36;;;;;;;1.77;0.53;;;;;;;;;;5012974;28;20029;-57
2024/02/24 13:08:02;;;;;;;3.08;0.70;;;;;;;;;;5007764;28;20123;-57
2024/02/24 13:10:27;;;;;;;1.85;0.63;;;;;;;;;;5010668;28;20022;-57
2024/02/24 13:12:53;;;;;;;3.83;0.77;;;;;;;;;;5012186;28;20033;-56
2024/02/24 13:15:18;;;;;;;2.47;0.60;;;;;;;;;;5011521;28;20482;-58
2024/02/24 13:17:43;;;;;;;3.13;0.80;;;;;;;;;;5012447;28;20448;-57
2024/02/24 13:20:11;;;;;;;1.75;0.60;;;;;;;;;;5011406;28;20018;-57
2024/02/24 13:22:40;;;;;;;3.10;0.77;;;;;;;;;;5010573;28;20068;-58
2024/02/24 13:25:07;;;;;;;2.72;0.73;;;;;;;;;;5010441;28;20018;-58
2024/02/24 13:27:32;;;;;;;2.28;0.60;;;;;;;;;;5010124;28;20119;-57
2024/02/24 13:29:57;;;;;;;2.35;0.70;;;;;;;;;;5011336;28;20089;-57
2024/02/24 13:32:22;;;;;;;3.35;0.80;;;;;;;;;;5010375;28;20030;-57
2024/02/24 13:34:48;;;;;;;2.60;0.60;;;;;;;;;;5011066;28;20466;-56
2024/02/24 13:37:13;;;;;;;1.47;0.60;;;;;;;;;;5010375;28;20056;-57
2024/02/24 13:39:38;;;;;;;2.58;0.80;;;;;;;;;;5014374;28;20041;-57
2024/02/24 13:42:04;;;;;;;2.43;0.70;;;;;;;;;;5013336;28;20097;-56
2024/02/24 13:44:29;;;;;;;2.13;0.60;;;;;;;;;;5014789;28;21012;-56
2024/02/24 13:46:54;;;;;;;1.27;0.40;;;;;;;;;;5018436;28;20025;-56
2024/02/24 13:49:20;;;;;;;2.47;0.67;;;;;;;;;;5011891;28;20100;-57
2024/02/24 13:51:48;;;;;;;1.67;0.50;;;;;;;;;;5010297;28;20029;-56
2024/02/24 13:54:13;;;;;;;2.75;0.50;;;;;;;;;;5016108;28;20065;-57
2024/02/24 13:56:38;;;;;;;2.17;0.57;;;;;;;;;;5005897;28;20528;-58
2024/02/24 13:59:03;;;;;;;2.27;0.70;;;;;;;;;;5016348;28;20017;-57
2024/02/24 14:01:30;;;;;;;1.67;0.60;;;;;;;;;;5017743;28;20022;-57
2024/02/24 14:03:56;;;;;;;2.88;0.68;;;;;;;;;;5019101;28;20025;-57
2024/02/24 14:06:22;;;;;;;2.40;0.65;;;;;;;;;;5017560;28;20033;-58
2024/02/24 14:08:47;;;;;;;2.80;0.70;;;;;;;;;;5017616;28;20022;-58
2024/02/24 14:11:13;;;;;;;4.20;0.70;;;;;;;;;;5015274;28;20121;-59
2024/02/24 14:13:39;;;;;;;2.05;0.70;;;;;;;;;;5013196;28;20080;-59
2024/02/24 14:16:04;;;;;;;2.75;0.75;;;;;;;;;;5012575;28;20041;-58
2024/02/24 14:18:29;;;;;;;2.50;0.80;;;;;;;;;;5012363;28;20025;-59
2024/02/24 14:20:55;;;;;;;2.00;0.57;;;;;;;;;;5012111;28;20021;-58
2024/02/24 14:23:20;;;;;;;2.47;0.70;;;;;;;;;;5012413;28;20515;-59
2024/02/24 14:25:45;;;;;;;2.97;0.73;;;;;;;;;;5011421;28;20100;-58
2024/02/24 14:28:11;;;;;;;2.92;0.98;;;;;;;;;;5015870;28;20100;-58
2024/02/24 14:30:37;;;;;;;4.00;1.00;;;;;;;;;;5016271;28;20026;-58
2024/02/24 14:33:02;;;;;;;5.40;0.90;;;;;;;;;;5032626;28;20037;-58